createdAt,value
2022-09-20T00:02:33.654Z,2.27
2022-09-20T00:05:08.536Z,1.92
2022-09-20T00:07:41.398Z,1.60
2022-09-20T00:10:14.338Z,0.93
2022-09-20T00:12:47.167Z,0.70
2022-09-20T00:15:20.141Z,0.72
2022-09-20T00:17:53.108Z,0.80
2022-09-20T00:20:26.556Z,0.80
2022-09-20T00:22:59.480Z,0.72
2022-09-20T00:25:33.486Z,0.40
2022-09-20T00:28:06.633Z,0.70
2022-09-20T00:30:40.065Z,0.90
2022-09-20T00:33:12.869Z,0.70
2022-09-20T00:35:47.029Z,0.65
2022-09-20T00:38:19.840Z,0.70
2022-09-20T00:40:52.740Z,0.90
2022-09-20T00:43:40.838Z,0.90
2022-09-20T00:46:22.578Z,0.72
2022-09-20T00:48:58.822Z,1.50
2022-09-20T00:51:35.035Z,1.07
2022-09-20T00:54:10.571Z,0.82
2022-09-20T00:56:44.408Z,0.70
2022-09-20T00:59:19.855Z,0.47
2022-09-20T01:01:55.664Z,0.65
2022-09-20T01:04:31.807Z,0.82
2022-09-20T01:07:07.283Z,0.82
2022-09-20T01:09:40.058Z,0.50
2022-09-20T01:12:16.005Z,0.78
2022-09-20T01:14:51.139Z,0.70
2022-09-20T01:17:26.919Z,0.65
2022-09-20T01:20:10.695Z,0.90
2022-09-20T01:22:51.604Z,0.80
2022-09-20T01:28:11.761Z,0.90
2022-09-20T01:30:48.102Z,0.90
2022-09-20T01:33:23.993Z,0.85
2022-09-20T01:35:59.021Z,0.65
2022-09-20T01:38:37.381Z,1.00
2022-09-20T01:41:13.155Z,0.85
2022-09-20T01:43:49.715Z,0.95
2022-09-20T01:46:31.175Z,0.82
2022-09-20T01:49:12.100Z,0.65
2022-09-20T01:52:46.177Z,0.80
2022-09-20T01:55:55.262Z,0.72
2022-09-20T01:59:30.073Z,0.80
2022-09-20T02:02:10.524Z,0.80
2022-09-20T02:05:17.107Z,0.72
2022-09-20T02:11:14.765Z,1.90
2022-09-20T02:14:08.870Z,1.95
2022-09-20T02:17:01.951Z,0.93
2022-09-20T02:20:04.890Z,0.98
2022-09-20T02:22:57.311Z,0.60
2022-09-20T02:25:41.947Z,0.88
2022-09-20T02:28:21.083Z,0.70
2022-09-20T02:30:59.210Z,0.50
2022-09-20T02:33:39.874Z,0.90
2022-09-20T02:36:39.118Z,1.00
2022-09-20T02:39:15.986Z,0.95
2022-09-20T02:41:59.248Z,0.82
2022-09-20T02:44:59.815Z,0.85
2022-09-20T02:47:37.999Z,0.65
2022-09-20T02:50:22.965Z,0.98
2022-09-20T02:53:04.446Z,0.80
2022-09-20T02:55:42.564Z,0.65
2022-09-20T02:58:28.061Z,0.90
2022-09-20T03:01:05.353Z,0.98
2022-09-20T03:03:44.435Z,0.80
2022-09-20T03:06:23.241Z,0.85
2022-09-20T03:09:01.237Z,0.80
2022-09-20T03:11:38.470Z,0.95
2022-09-20T03:14:19.133Z,0.70
2022-09-20T03:17:02.428Z,0.70
2022-09-20T03:19:42.440Z,0.90
2022-09-20T03:22:22.192Z,0.80
2022-09-20T03:25:06.382Z,0.72
2022-09-20T03:27:43.476Z,0.55
2022-09-20T03:30:28.629Z,1.13
2022-09-20T03:33:06.918Z,0.50
2022-09-20T03:35:54.851Z,0.68
2022-09-20T03:38:40.117Z,0.72
2022-09-20T03:41:28.295Z,0.95
2022-09-20T03:44:09.661Z,0.60
2022-09-20T03:46:47.054Z,0.62
2022-09-20T03:49:54.488Z,0.80
2022-09-20T03:52:42.359Z,1.02
2022-09-20T03:55:58.165Z,1.00
2022-09-20T03:58:47.709Z,0.80
2022-09-20T04:01:31.795Z,0.85
2022-09-20T04:04:09.829Z,0.78
2022-09-20T04:09:43.237Z,1.00
2022-09-20T04:12:20.064Z,0.78
2022-09-20T04:14:57.181Z,0.90
2022-09-20T04:17:34.913Z,0.77
2022-09-20T04:20:11.833Z,0.95
2022-09-20T04:22:48.412Z,0.98
2022-09-20T04:25:24.682Z,1.02
2022-09-20T04:28:00.588Z,0.98
2022-09-20T04:30:37.738Z,0.95
2022-09-20T04:33:15.617Z,0.93
2022-09-20T04:36:09.348Z,0.75
2022-09-20T04:38:44.162Z,0.98
2022-09-20T04:41:32.451Z,1.22
2022-09-20T04:47:50.982Z,0.80
2022-09-20T04:50:46.622Z,0.70
2022-09-20T04:53:51.134Z,0.90
2022-09-20T04:56:30.764Z,0.80
2022-09-20T04:59:10.340Z,0.88
2022-09-20T05:02:03.993Z,1.25
2022-09-20T05:05:17.292Z,1.20
2022-09-20T05:08:41.287Z,0.90
2022-09-20T05:12:03.395Z,0.90
2022-09-20T05:15:06.442Z,0.80
2022-09-20T05:17:46.960Z,0.88
2022-09-20T05:20:46.848Z,0.93
2022-09-20T05:26:44.609Z,1.07
2022-09-20T05:29:21.305Z,1.10
2022-09-20T05:31:57.537Z,0.95
2022-09-20T05:34:34.296Z,0.82
2022-09-20T05:37:10.096Z,0.70
2022-09-20T05:39:46.480Z,0.82
2022-09-20T05:42:23.169Z,0.90
2022-09-20T05:45:07.896Z,1.25
2022-09-20T05:47:43.896Z,0.88
2022-09-20T05:50:32.166Z,1.20
2022-09-20T05:55:58.508Z,1.10
2022-09-20T05:58:50.076Z,1.05
2022-09-20T06:01:27.510Z,1.00
2022-09-20T06:04:05.958Z,1.17
2022-09-20T06:06:43.180Z,1.10
2022-09-20T06:09:25.223Z,1.90
2022-09-20T06:12:11.896Z,0.85
2022-09-20T06:14:50.921Z,1.72
2022-09-20T06:17:29.689Z,1.12
2022-09-20T06:20:15.089Z,0.50
2022-09-20T06:22:51.086Z,0.80
2022-09-20T06:25:27.945Z,0.78
2022-09-20T06:28:04.857Z,0.60
2022-09-20T06:30:40.645Z,0.85
2022-09-20T06:33:18.119Z,0.78
2022-09-20T06:35:58.286Z,0.50
2022-09-20T06:39:04.526Z,0.70
2022-09-20T06:41:38.512Z,0.80
2022-09-20T06:44:13.154Z,0.70
2022-09-20T06:46:46.000Z,1.15
2022-09-20T06:49:18.888Z,0.95
2022-09-20T06:51:52.585Z,0.82
2022-09-20T06:54:27.232Z,0.80
2022-09-20T06:57:02.933Z,0.98
2022-09-20T06:59:35.950Z,0.50
2022-09-20T07:02:09.220Z,1.00
2022-09-20T07:04:43.765Z,0.55
2022-09-20T07:07:19.620Z,0.75
2022-09-20T07:09:52.469Z,0.88
2022-09-20T07:12:25.746Z,0.80
2022-09-20T07:14:58.601Z,0.80
2022-09-20T07:17:31.814Z,0.80
2022-09-20T07:20:05.379Z,0.90
2022-09-20T07:22:38.382Z,0.72
2022-09-20T07:25:12.429Z,0.70
2022-09-20T07:27:46.650Z,1.35
2022-09-20T07:30:21.763Z,0.82
2022-09-20T07:32:54.571Z,1.50
2022-09-20T07:35:27.635Z,0.80
2022-09-20T07:38:01.383Z,0.72
2022-09-20T07:40:34.365Z,0.80
2022-09-20T07:43:07.493Z,1.00
2022-09-20T07:45:40.571Z,0.80
2022-09-20T07:48:14.625Z,1.00
2022-09-20T07:50:54.315Z,1.00
2022-09-20T07:53:27.546Z,1.00
2022-09-20T07:56:02.108Z,1.00
2022-09-20T07:58:36.861Z,0.60
2022-09-20T08:01:11.431Z,0.80
2022-09-20T08:03:45.226Z,0.70
2022-09-20T08:06:18.801Z,0.40
2022-09-20T08:08:52.042Z,0.95
2022-09-20T08:11:28.370Z,0.93
2022-09-20T08:14:06.956Z,0.53
2022-09-20T08:16:40.307Z,0.95
2022-09-20T08:19:17.834Z,1.00
2022-09-20T08:21:51.486Z,0.45
2022-09-20T08:24:26.342Z,0.60
2022-09-20T08:26:59.276Z,0.65
2022-09-20T08:29:33.516Z,0.93
2022-09-20T08:32:06.613Z,0.88
2022-09-20T08:34:40.790Z,0.70
2022-09-20T08:37:14.644Z,0.72
2022-09-20T08:40:03.209Z,0.75
2022-09-20T08:42:27.289Z,0.72
2022-09-20T08:47:37.470Z,0.47
2022-09-20T08:50:17.639Z,0.37
2022-09-20T08:52:51.768Z,0.62
2022-09-20T08:55:28.123Z,0.50
2022-09-20T08:58:07.520Z,1.17
2022-09-20T09:00:38.694Z,0.68
2022-09-20T09:03:16.953Z,0.60
2022-09-20T09:05:51.933Z,0.68
2022-09-20T09:08:27.809Z,0.75
2022-09-20T09:11:05.241Z,0.47
2022-09-20T09:16:21.955Z,0.45
2022-09-20T09:18:52.454Z,1.07
2022-09-20T09:21:27.401Z,0.40
2022-09-20T09:26:46.409Z,0.57
2022-09-20T09:29:21.221Z,0.35
2022-09-20T09:31:55.409Z,0.50
2022-09-20T09:34:31.714Z,0.30
2022-09-20T09:37:04.510Z,0.40
2022-09-20T09:39:38.525Z,0.20
2022-09-20T09:42:24.201Z,0.62
2022-09-20T09:45:01.507Z,0.40
2022-09-20T09:50:10.453Z,0.50
2022-09-20T09:52:44.766Z,0.80
2022-09-20T09:55:17.949Z,0.55
2022-09-20T09:57:55.329Z,0.75
2022-09-20T10:00:29.780Z,0.68
2022-09-20T10:03:15.556Z,1.10
2022-09-20T10:05:55.665Z,1.37
2022-09-20T10:08:34.679Z,1.10
2022-09-20T10:11:14.587Z,1.17
2022-09-20T10:13:50.590Z,1.98
2022-09-20T10:16:29.315Z,0.62
2022-09-20T10:19:06.630Z,0.60
2022-09-20T10:21:45.854Z,1.82
2022-09-20T10:24:28.461Z,1.50
2022-09-20T10:27:12.523Z,0.90
2022-09-20T10:29:55.023Z,0.90
2022-09-20T10:32:45.271Z,2.02
2022-09-20T10:35:28.458Z,2.20
2022-09-20T10:38:15.756Z,2.17
2022-09-20T10:41:22.009Z,2.90
2022-09-20T10:44:26.949Z,3.02
2022-09-20T10:47:03.228Z,4.55
2022-09-20T10:49:40.202Z,3.67
2022-09-20T10:52:31.863Z,5.53
2022-09-20T10:55:18.858Z,4.85
2022-09-20T10:58:30.657Z,3.22
2022-09-20T11:01:07.243Z,2.95
2022-09-20T11:04:29.827Z,2.37
2022-09-20T11:07:09.162Z,2.20
2022-09-20T11:09:45.485Z,2.37
2022-09-20T11:12:21.665Z,1.52
2022-09-20T11:14:57.693Z,1.40
2022-09-20T11:17:33.574Z,0.95
2022-09-20T11:20:10.002Z,1.37
2022-09-20T11:22:48.157Z,1.57
2022-09-20T11:25:29.303Z,1.30
2022-09-20T11:28:01.835Z,1.00
2022-09-20T11:30:37.728Z,1.07
2022-09-20T11:33:15.643Z,1.30
2022-09-20T11:35:51.506Z,1.10
2022-09-20T11:38:27.675Z,1.12
2022-09-20T11:41:05.145Z,1.10
2022-09-20T11:43:41.504Z,0.88
2022-09-20T11:46:17.649Z,1.20
2022-09-20T11:48:53.849Z,1.87
2022-09-20T11:51:50.282Z,1.17
2022-09-20T11:54:48.453Z,0.85
2022-09-20T11:57:22.218Z,1.17
2022-09-20T11:59:59.357Z,1.02
2022-09-20T12:02:37.655Z,1.50
2022-09-20T12:05:18.309Z,1.40
2022-09-20T12:07:55.067Z,1.45
2022-09-20T12:10:32.869Z,1.00
2022-09-20T12:15:43.647Z,1.77
2022-09-20T12:19:03.684Z,2.22
2022-09-20T12:21:55.889Z,1.40
2022-09-20T12:24:31.480Z,1.67
2022-09-20T12:27:07.534Z,1.80
2022-09-20T12:30:07.453Z,1.80
2022-09-20T12:32:53.340Z,1.72
2022-09-20T12:39:11.862Z,1.65
2022-09-20T12:41:51.293Z,1.40
2022-09-20T12:44:36.764Z,1.32
2022-09-20T12:47:18.446Z,1.30
2022-09-20T12:50:13.137Z,1.27
2022-09-20T12:52:58.242Z,1.10
2022-09-20T12:55:55.286Z,1.20
2022-09-20T12:58:44.973Z,1.10
2022-09-20T13:01:33.578Z,1.32
2022-09-20T13:04:55.769Z,1.32
2022-09-20T13:07:51.821Z,1.67
2022-09-20T13:10:30.299Z,1.70
2022-09-20T13:13:08.652Z,1.52
2022-09-20T13:15:55.044Z,1.30
2022-09-20T13:18:32.523Z,1.50
2022-09-20T13:21:08.366Z,1.65
2022-09-20T13:23:48.474Z,1.30
2022-09-20T13:26:27.787Z,2.25
2022-09-20T13:29:05.685Z,2.25
2022-09-20T13:34:24.491Z,1.27
2022-09-20T13:37:03.788Z,1.92
2022-09-20T13:39:38.800Z,1.87
2022-09-20T13:42:17.344Z,2.40
2022-09-20T13:44:50.906Z,2.75
2022-09-20T13:47:29.950Z,2.25
2022-09-20T13:50:04.352Z,1.92
2022-09-20T13:52:45.796Z,1.90
2022-09-20T13:55:30.690Z,2.02
2022-09-20T13:58:07.614Z,2.33
2022-09-20T14:00:44.121Z,1.90
2022-09-20T14:03:20.434Z,1.70
2022-09-20T14:05:56.288Z,1.50
2022-09-20T14:08:31.897Z,1.70
2022-09-20T14:11:09.465Z,2.08
2022-09-20T14:13:44.503Z,1.67
2022-09-20T14:16:18.720Z,1.90
2022-09-20T14:18:52.800Z,2.05
2022-09-20T14:21:28.435Z,1.15
2022-09-20T14:24:05.279Z,1.77
2022-09-20T14:26:40.094Z,1.62
2022-09-20T14:29:33.441Z,2.10
2022-09-20T14:32:11.794Z,2.35
2022-09-20T14:34:46.003Z,1.77
2022-09-20T14:37:22.138Z,2.00
2022-09-20T14:39:57.655Z,2.67
2022-09-20T14:42:34.333Z,2.98
2022-09-20T14:45:09.662Z,2.37
2022-09-20T14:47:55.618Z,2.58
2022-09-20T14:50:32.624Z,2.92
2022-09-20T14:53:35.106Z,2.30
2022-09-20T14:56:13.579Z,2.47
2022-09-20T14:59:08.132Z,2.02
2022-09-20T15:01:45.044Z,2.30
2022-09-20T15:04:21.756Z,2.05
2022-09-20T15:06:55.324Z,2.65
2022-09-20T15:09:28.485Z,2.05
2022-09-20T15:12:06.450Z,2.42
2022-09-20T15:14:42.336Z,2.00
2022-09-20T15:17:18.507Z,2.45
2022-09-20T15:19:53.870Z,1.85
2022-09-20T15:22:30.393Z,2.60
2022-09-20T15:25:04.392Z,2.75
2022-09-20T15:27:38.235Z,2.20
2022-09-20T15:30:15.029Z,2.42
2022-09-20T15:32:51.292Z,2.12
2022-09-20T15:35:24.146Z,2.35
2022-09-20T15:37:57.039Z,2.67
2022-09-20T15:40:30.248Z,2.40
2022-09-20T15:43:03.161Z,2.50
2022-09-20T15:45:37.878Z,2.77
2022-09-20T15:48:14.078Z,3.02
2022-09-20T15:50:49.258Z,2.52
2022-09-20T15:53:25.296Z,2.15
2022-09-20T15:55:58.354Z,2.65
2022-09-20T15:58:35.861Z,2.60
2022-09-20T16:01:09.662Z,2.70
2022-09-20T16:03:42.790Z,2.77
2022-09-20T16:06:16.260Z,2.70
2022-09-20T16:09:32.878Z,2.40
2022-09-20T16:12:06.920Z,3.27
2022-09-20T16:14:41.256Z,2.80
2022-09-20T16:17:14.350Z,2.45
2022-09-20T16:19:48.721Z,2.45
2022-09-20T16:22:22.844Z,2.33
2022-09-20T16:24:58.063Z,2.75
2022-09-20T16:27:33.690Z,2.65
2022-09-20T16:30:08.566Z,3.67
2022-09-20T16:32:42.418Z,3.58
2022-09-20T16:35:16.953Z,3.10
2022-09-20T16:37:52.702Z,3.40
2022-09-20T16:40:27.460Z,3.20
2022-09-20T16:43:00.373Z,3.27
2022-09-20T16:45:33.349Z,3.83
2022-09-20T16:48:08.551Z,3.45
2022-09-20T16:50:41.071Z,3.83
2022-09-20T16:53:14.183Z,3.37
2022-09-20T16:55:51.202Z,3.30
2022-09-20T16:58:30.029Z,3.55
2022-09-20T17:01:07.182Z,3.47
2022-09-20T17:03:41.028Z,3.33
2022-09-20T17:06:16.083Z,6.10
2022-09-20T17:08:53.630Z,3.77
2022-09-20T17:11:28.855Z,4.10
2022-09-20T17:14:02.077Z,3.50
2022-09-20T17:16:36.462Z,5.15
2022-09-20T17:19:11.971Z,4.40
2022-09-20T17:21:48.803Z,4.15
2022-09-20T17:24:25.284Z,3.90
2022-09-20T17:27:02.137Z,4.03
2022-09-20T17:29:35.608Z,4.25
2022-09-20T17:32:11.873Z,4.50
2022-09-20T17:35:01.024Z,4.90
2022-09-20T17:37:42.465Z,4.50
2022-09-20T17:40:18.720Z,3.90
2022-09-20T17:43:15.842Z,5.15
2022-09-20T17:46:10.765Z,4.25
2022-09-20T17:48:49.203Z,4.45
2022-09-20T17:51:36.877Z,4.03
2022-09-20T17:54:19.632Z,4.47
2022-09-20T17:56:49.720Z,4.87
2022-09-20T18:02:06.082Z,4.62
2022-09-20T18:04:46.587Z,4.40
2022-09-20T18:07:23.235Z,4.42
2022-09-20T18:09:56.914Z,4.60
2022-09-20T18:12:30.139Z,5.62
2022-09-20T18:15:08.869Z,4.42
2022-09-20T18:17:42.180Z,5.55
2022-09-20T18:20:16.383Z,5.55
2022-09-20T18:22:52.821Z,5.95
2022-09-20T18:25:26.703Z,5.67
2022-09-20T18:28:00.424Z,5.40
2022-09-20T18:30:38.953Z,4.60
2022-09-20T18:33:12.511Z,5.12
2022-09-20T18:35:46.141Z,5.08
2022-09-20T18:38:19.584Z,4.85
2022-09-20T18:41:00.344Z,4.97
2022-09-20T18:43:37.372Z,5.55
2022-09-20T18:48:44.277Z,5.90
2022-09-20T18:51:17.999Z,5.35
2022-09-20T18:53:54.025Z,4.78
2022-09-20T18:56:29.864Z,5.50
2022-09-20T18:59:06.342Z,4.58
2022-09-20T19:02:24.355Z,4.42
2022-09-20T19:05:12.117Z,4.00
2022-09-20T19:10:28.758Z,4.20
2022-09-20T19:13:05.452Z,4.00
2022-09-20T19:15:48.726Z,4.83
2022-09-20T19:18:56.088Z,4.10
2022-09-20T19:21:42.127Z,3.98
2022-09-20T19:24:24.494Z,4.33
2022-09-20T19:26:59.099Z,4.20
2022-09-20T19:29:33.918Z,3.40
2022-09-20T19:32:21.863Z,4.17
2022-09-20T19:35:01.062Z,4.20
2022-09-20T19:37:41.505Z,5.25
2022-09-20T19:40:25.019Z,4.22
2022-09-20T19:43:04.721Z,5.50
2022-09-20T19:48:26.144Z,4.60
2022-09-20T19:51:01.445Z,4.37
2022-09-20T19:53:38.503Z,4.45
2022-09-20T19:56:18.031Z,4.50
2022-09-20T19:58:53.343Z,4.30
2022-09-20T20:01:28.588Z,4.22
2022-09-20T20:04:03.921Z,3.70
2022-09-20T20:06:57.669Z,3.85
2022-09-20T20:09:42.447Z,4.03
2022-09-20T20:12:25.611Z,4.60
2022-09-20T20:17:48.129Z,3.80
2022-09-20T20:20:33.978Z,4.00
2022-09-20T20:26:43.593Z,5.05
2022-09-20T20:29:16.805Z,4.47
2022-09-20T20:31:51.404Z,4.78
2022-09-20T20:34:26.824Z,5.12
2022-09-20T20:37:01.344Z,4.37
2022-09-20T20:39:38.035Z,4.42
2022-09-20T20:42:13.044Z,4.70
2022-09-20T20:44:46.747Z,5.47
2022-09-20T20:47:37.345Z,5.42
2022-09-20T20:50:12.818Z,5.55
2022-09-20T20:52:47.538Z,4.03
2022-09-20T20:55:20.793Z,5.15
2022-09-20T20:57:58.582Z,5.37
2022-09-20T21:00:31.822Z,5.25
2022-09-20T21:03:10.009Z,5.17
2022-09-20T21:05:44.031Z,4.58
2022-09-20T21:08:17.328Z,4.80
2022-09-20T21:10:50.464Z,4.15
2022-09-20T21:13:26.179Z,4.20
2022-09-20T21:16:11.453Z,4.45
2022-09-20T21:18:52.858Z,5.03
2022-09-20T21:21:38.683Z,3.77
2022-09-20T21:24:21.314Z,3.95
2022-09-20T21:26:58.293Z,3.90
2022-09-20T21:29:32.718Z,4.40
2022-09-20T21:32:06.119Z,4.65
2022-09-20T21:34:39.600Z,4.90
2022-09-20T21:37:12.819Z,5.00
2022-09-20T21:39:47.101Z,5.20
2022-09-20T21:42:23.533Z,5.75
2022-09-20T21:47:38.713Z,5.53
2022-09-20T21:50:13.014Z,4.45
2022-09-20T21:53:13.134Z,4.45
2022-09-20T21:55:47.895Z,5.00
2022-09-20T21:58:20.730Z,4.55
2022-09-20T22:01:03.221Z,5.60
2022-09-20T22:03:38.976Z,5.83
2022-09-20T22:06:14.447Z,6.00
2022-09-20T22:08:50.653Z,5.72
2022-09-20T22:11:24.926Z,5.97
2022-09-20T22:13:58.857Z,6.40
2022-09-20T22:16:34.487Z,5.87
2022-09-20T22:19:08.808Z,6.00
2022-09-20T22:21:43.881Z,6.67
2022-09-20T22:24:17.964Z,6.95
2022-09-20T22:26:53.707Z,6.42
2022-09-20T22:29:26.667Z,5.47
2022-09-20T22:31:59.478Z,9.20
2022-09-20T22:34:32.329Z,7.65
2022-09-20T22:37:05.323Z,6.50
2022-09-20T22:39:38.208Z,6.90
2022-09-20T22:42:11.043Z,6.15
2022-09-20T22:44:43.944Z,6.00
2022-09-20T22:47:16.720Z,6.72
2022-09-20T22:49:49.588Z,7.28
2022-09-20T22:52:22.707Z,7.62
2022-09-20T22:54:55.819Z,6.40
2022-09-20T22:57:29.110Z,7.20
2022-09-20T23:00:02.584Z,7.78
2022-09-20T23:02:35.709Z,6.92
2022-09-20T23:05:09.908Z,6.75
2022-09-20T23:07:43.040Z,6.72
2022-09-20T23:10:16.468Z,7.72
2022-09-20T23:12:53.524Z,7.25
2022-09-20T23:15:26.873Z,7.60
2022-09-20T23:17:59.964Z,7.95
2022-09-20T23:20:33.541Z,8.20
2022-09-20T23:23:06.676Z,8.38
2022-09-20T23:25:39.867Z,7.95
2022-09-20T23:28:13.141Z,8.75
2022-09-20T23:30:46.227Z,7.55
2022-09-20T23:33:19.409Z,6.83
2022-09-20T23:35:52.486Z,7.87
2022-09-20T23:38:26.119Z,7.50
2022-09-20T23:41:03.832Z,8.68
2022-09-20T23:43:38.691Z,8.25
2022-09-20T23:46:13.876Z,9.20
2022-09-20T23:48:47.487Z,9.18
2022-09-20T23:51:23.787Z,9.03
2022-09-20T23:53:57.090Z,9.90
2022-09-20T23:56:30.240Z,10.78
2022-09-20T23:59:03.370Z,12.20
